Time;durP1;ratioP1;P1;durP2;ratioP2;P2;SDS_P1;SDS_P2;PMS_P1;PMS_P2;Temp;Humidity;BMP_temperature;BMP_pressure;BME280_temperature;BME280_humidity;BME280_pressure;Samples;Min_cycle;Max_cycle;Signal;HPM_P1;HPM_P2
2022/08/21 00:01:02;;;;;;;9.60;1.57;;;16.20;99.90;;;;;;20938832;28;20120;-75
2022/08/21 00:11:04;;;;;;;3.92;2.40;;;16.30;99.90;;;;;;20950106;28;20135;-74
2022/08/21 00:21:05;;;;;;;4.68;3.15;;;16.10;99.90;;;;;;20953270;28;20048;-75
2022/08/21 00:31:07;;;;;;;3.57;1.47;;;16.30;99.90;;;;;;20947996;28;20033;-75
2022/08/21 00:41:10;;;;;;;2.47;1.65;;;15.80;99.90;;;;;;20920635;28;20037;-75
2022/08/21 00:51:22;;;;;;;1.70;1.05;;;15.40;99.90;;;;;;20906834;28;20064;-75
2022/08/21 01:01:24;;;;;;;2.25;1.10;;;15.30;99.90;;;;;;20906900;28;20037;-75
2022/08/21 01:11:25;;;;;;;3.70;1.37;;;15.30;99.90;;;;;;20906408;28;20033;-75
2022/08/21 01:21:27;;;;;;;5.10;2.08;;;15.50;99.90;;;;;;20905421;28;20045;-75
2022/08/21 01:31:29;;;;;;;2.65;2.08;;;15.60;99.90;;;;;;20905837;28;20052;-75
2022/08/21 01:41:30;;;;;;;;;;;15.50;99.90;;;;;;20905579;28;20033;-74
2022/08/21 01:51:30;;;;;;;7.53;3.13;;;15.60;99.90;;;;;;20905478;28;20351;-74
2022/08/21 02:01:31;;;;;;;2.77;2.10;;;15.20;99.90;;;;;;20914477;28;20033;-74
2022/08/21 02:11:35;;;;;;;12.73;3.47;;;15.00;99.90;;;;;;20926154;28;20552;-74
2022/08/21 02:21:36;;;;;;;8.18;5.25;;;15.10;99.90;;;;;;20917347;28;20060;-74
2022/08/21 02:31:37;;;;;;;3.17;1.53;;;15.10;99.90;;;;;;20917257;28;20033;-75
2022/08/21 02:41:38;;;;;;;2.40;1.50;;;15.00;99.90;;;;;;20916458;28;20033;-74
2022/08/21 02:51:38;;;;;;;3.07;1.60;;;14.90;99.90;;;;;;20915908;28;20122;-74
2022/08/21 03:01:39;;;;;;;2.73;1.63;;;14.70;99.90;;;;;;20914871;28;20127;-74
2022/08/21 03:11:40;;;;;;;1.57;1.40;;;14.90;99.90;;;;;;20912172;28;20111;-74
2022/08/21 03:21:41;;;;;;;1.37;1.10;;;15.10;99.90;;;;;;20913389;28;20096;-76
2022/08/21 03:31:42;;;;;;;5.40;1.40;;;15.10;99.90;;;;;;20912390;28;20047;-74
2022/08/21 03:41:42;;;;;;;6.07;1.40;;;14.80;99.90;;;;;;20911868;28;20036;-75
2022/08/21 03:51:43;;;;;;;3.17;1.17;;;14.90;99.90;;;;;;20911366;28;20471;-75
2022/08/21 04:01:53;;;;;;;2.10;1.30;;;14.80;99.90;;;;;;20916725;28;20474;-76
2022/08/21 04:11:54;;;;;;;8.63;1.70;;;14.50;99.90;;;;;;20909841;28;20113;-75
2022/08/21 04:21:55;;;;;;;6.47;1.70;;;14.00;99.90;;;;;;20908765;28;20029;-75
2022/08/21 04:31:55;;;;;;;5.17;1.83;;;14.10;99.90;;;;;;20908372;28;20496;-76
2022/08/21 04:41:56;;;;;;;3.13;1.90;;;13.90;99.90;;;;;;20907592;28;20057;-75
2022/08/21 04:51:57;;;;;;;5.17;1.47;;;13.60;99.90;;;;;;20907351;28;20038;-75
2022/08/21 05:01:59;;;;;;;5.83;4.30;;;13.80;99.90;;;;;;20906870;28;20063;-75
2022/08/21 05:12:02;;;;;;;6.20;4.53;;;14.30;99.90;;;;;;20906458;28;20469;-75
2022/08/21 05:22:04;;;;;;;4.25;3.00;;;14.70;99.90;;;;;;20906103;28;20076;-75
2022/08/21 05:32:12;;;;;;;3.47;1.50;;;14.90;99.90;;;;;;20909043;28;20041;-75
2022/08/21 05:42:13;;;;;;;5.78;2.28;;;15.10;99.90;;;;;;21013827;22;20466;-80
2022/08/21 05:52:19;;;;;;;6.73;4.03;;;15.40;99.90;;;;;;20985306;28;20037;-80
2022/08/21 06:02:21;;;;;;;14.20;5.72;;;15.40;99.90;;;;;;20965082;28;20045;-80
2022/08/21 06:12:22;;;;;;;;;;;15.50;99.90;;;;;;20986052;28;20105;-80
2022/08/21 06:22:25;;;;;;;10.75;4.78;;;15.70;99.90;;;;;;20965567;28;19912;-80
2022/08/21 06:32:26;;;;;;;5.23;3.13;;;16.20;99.90;;;;;;20979533;28;20103;-80
2022/08/21 06:42:27;;;;;;;4.53;3.07;;;16.40;99.90;;;;;;20958246;28;20051;-80
2022/08/21 06:52:29;;;;;;;8.48;2.70;;;16.60;99.90;;;;;;20956969;28;20461;-79
2022/08/21 07:02:30;;;;;;;3.50;2.30;;;16.70;99.90;;;;;;20965731;28;20037;-80
2022/08/21 07:12:31;;;;;;;3.00;2.30;;;18.00;99.90;;;;;;20972884;28;20075;-80
2022/08/21 07:22:32;;;;;;;2.53;1.60;;;19.10;99.90;;;;;;20963885;28;20033;-81
2022/08/21 07:32:33;;;;;;;5.97;1.60;;;19.60;99.90;;;;;;20948546;28;20048;-81
2022/08/21 07:42:34;;;;;;;5.23;1.77;;;20.60;99.90;;;;;;20941407;28;20037;-80
2022/08/21 07:52:35;;;;;;;2.63;1.63;;;20.20;99.90;;;;;;20935971;28;20063;-78
2022/08/21 08:02:36;;;;;;;15.80;1.60;;;19.80;99.90;;;;;;20923081;28;20033;-80
2022/08/21 08:12:40;;;;;;;2.73;1.83;;;19.40;99.90;;;;;;20929788;28;20056;-81
2022/08/21 08:22:42;;;;;;;5.32;1.70;;;19.30;99.90;;;;;;20903004;28;20056;-82
2022/08/21 08:32:44;;;;;;;5.82;2.00;;;19.90;99.90;;;;;;20983441;28;20502;-81
2022/08/21 08:42:47;;;;;;;3.53;1.70;;;21.50;99.90;;;;;;20980078;28;20119;-80
2022/08/21 08:52:57;;;;;;;3.05;1.45;;;22.10;99.90;;;;;;20986508;28;20053;-78
2022/08/21 09:03:02;;;;;;;1.98;1.25;;;22.80;99.90;;;;;;21000092;28;20044;-77
2022/08/21 09:13:11;;;;;;;1.38;1.17;;;22.90;99.90;;;;;;20985329;28;20458;-78
2022/08/21 09:23:43;;;;;;;2.75;1.00;;;23.70;99.90;;;;;;20954024;28;20057;-78
2022/08/21 09:33:44;;;;;;;1.93;1.30;;;24.30;99.90;;;;;;20961741;28;20037;-76
2022/08/21 09:43:52;;;;;;;;;;;24.40;99.90;;;;;;20956287;28;20044;-76
2022/08/21 09:54:05;;;;;;;1.38;0.95;;;24.30;99.90;;;;;;20958932;28;20286;-76
2022/08/21 10:04:10;;;;;;;2.65;1.40;;;26.10;99.90;;;;;;20937757;28;20621;-76
2022/08/21 10:14:32;;;;;;;2.75;1.50;;;26.00;99.90;;;;;;20955276;28;20055;-76
2022/08/21 10:24:44;;;;;;;3.65;1.35;;;27.20;99.90;;;;;;20953753;28;20491;-76
2022/08/21 10:35:00;;;;;;;3.08;1.23;;;27.10;99.90;;;;;;20951508;28;20111;-76
2022/08/21 10:45:12;;;;;;;5.22;1.50;;;28.40;99.90;;;;;;20970277;28;20037;-76
2022/08/21 10:55:17;;;;;;;5.10;1.13;;;29.00;99.90;;;;;;20923977;28;20048;-76
2022/08/21 11:05:49;;;;;;;14.27;4.47;;;28.10;99.90;;;;;;20911520;28;20072;-75
2022/08/21 11:16:02;;;;;;;2.75;1.00;;;27.70;99.90;;;;;;20959921;28;20041;-75
2022/08/21 11:26:13;;;;;;;10.68;2.30;;;28.00;99.90;;;;;;20992163;28;20079;-75
2022/08/21 11:36:41;;;;;;;43.47;9.80;;;28.50;99.90;;;;;;21015498;22;20469;-80
2022/08/21 11:47:01;;;;;;;2.28;1.10;;;27.70;99.90;;;;;;21083821;28;20555;-79
2022/08/21 11:57:18;;;;;;;1.60;1.10;;;29.30;99.90;;;;;;21074176;28;20424;-79
2022/08/21 12:07:33;;;;;;;2.33;0.90;;;29.30;99.90;;;;;;21053404;28;20266;-80
2022/08/21 12:17:38;;;;;;;1.17;0.63;;;29.50;99.90;;;;;;21032936;28;20028;-82
2022/08/21 12:27:51;;;;;;;2.30;0.90;;;29.80;99.90;;;;;;21027993;28;20035;-81
2022/08/21 12:37:59;;;;;;;1.73;0.80;;;28.80;99.90;;;;;;21011825;28;20059;-79
2022/08/21 12:48:08;;;;;;;1.92;0.80;;;30.10;99.90;;;;;;21025423;28;20024;-81
2022/08/21 12:58:20;;;;;;;1.27;0.52;;;30.50;99.90;;;;;;21027259;28;20035;-81
2022/08/21 13:08:24;;;;;;;1.40;0.52;;;29.40;99.90;;;;;;20994180;28;20025;-80
2022/08/21 13:18:27;;;;;;;1.20;0.73;;;30.10;99.90;;;;;;20984501;28;20074;-80
2022/08/21 13:28:36;;;;;;;7.40;0.82;;;29.10;99.90;;;;;;21011205;28;20119;-81
2022/08/21 13:38:39;;;;;;;1.55;0.80;;;29.60;99.90;;;;;;20970669;28;20486;-79
2022/08/21 13:48:41;;;;;;;1.83;0.60;;;30.10;99.90;;;;;;20973711;28;20547;-80
2022/08/21 13:58:45;;;;;;;2.75;0.80;;;29.70;99.90;;;;;;20971093;28;20037;-81
2022/08/21 14:08:59;;;;;;;1.23;0.60;;;29.70;99.90;;;;;;20964391;28;20029;-82
2022/08/21 14:18:59;;;;;;;1.40;0.43;;;29.00;99.40;;;;;;20979222;28;20044;-77
2022/08/21 14:29:00;;;;;;;1.40;0.70;;;29.10;99.90;;;;;;21006986;28;20116;-79
2022/08/21 14:39:01;;;;;;;2.58;0.90;;;28.10;99.90;;;;;;20992157;28;20275;-79
2022/08/21 14:49:03;;;;;;;1.77;0.70;;;28.50;99.90;;;;;;21005176;28;20025;-79
2022/08/21 14:59:07;;;;;;;1.45;0.80;;;28.40;99.90;;;;;;20991572;28;20083;-77
2022/08/21 15:09:08;;;;;;;1.35;0.60;;;28.40;99.90;;;;;;20989311;28;20037;-79
2022/08/21 15:19:09;;;;;;;2.47;0.70;;;28.40;99.90;;;;;;20942749;28;20033;-78
2022/08/21 15:29:10;;;;;;;1.03;0.93;;;27.70;99.90;;;;;;20870685;28;20063;-78
2022/08/21 15:39:11;;;;;;;0.60;0.50;;;26.70;99.90;;;;;;20870004;28;20325;-78
2022/08/21 15:49:12;;;;;;;1.55;0.75;;;26.20;99.90;;;;;;20946710;28;20041;-79
2022/08/21 15:59:21;;;;;;;2.05;0.85;;;25.50;99.90;;;;;;20955757;28;20116;-78
2022/08/21 16:09:22;;;;;;;1.02;0.55;;;25.60;99.90;;;;;;20944901;28;20126;-77
2022/08/21 16:19:24;;;;;;;1.58;0.73;;;26.40;99.90;;;;;;20945253;28;20051;-78
2022/08/21 16:29:33;;;;;;;3.08;0.63;;;26.00;99.90;;;;;;20939354;28;20040;-78
2022/08/21 16:39:34;;;;;;;1.45;0.73;;;26.10;99.90;;;;;;20947064;28;20040;-77
2022/08/21 16:49:35;;;;;;;1.63;0.60;;;26.10;99.90;;;;;;20950868;28;20060;-79
2022/08/21 16:59:37;;;;;;;1.15;0.60;;;25.80;99.90;;;;;;20960640;28;20056;-79
2022/08/21 17:09:38;;;;;;;5.97;1.27;;;26.00;99.90;;;;;;20959981;28;20020;-78
2022/08/21 17:19:39;;;;;;;5.32;0.90;;;25.90;99.90;;;;;;20949546;28;20040;-79
2022/08/21 17:29:40;;;;;;;1.77;0.70;;;26.10;99.90;;;;;;20953901;28;20033;-77
2022/08/21 17:39:41;;;;;;;1.67;0.90;;;25.70;99.90;;;;;;20941468;28;20468;-78
2022/08/21 17:49:42;;;;;;;3.90;0.80;;;25.10;99.90;;;;;;20924652;28;20025;-77
2022/08/21 17:59:43;;;;;;;;;;;24.20;99.90;;;;;;20926213;28;20035;-78
2022/08/21 18:09:44;;;;;;;2.80;0.90;;;24.00;99.90;;;;;;20987192;28;20012;-78
2022/08/21 18:19:45;;;;;;;;;;;23.90;99.90;;;;;;20950025;28;20033;-77
2022/08/21 18:29:47;;;;;;;2.17;1.10;;;23.90;99.90;;;;;;20918573;28;19916;-77
2022/08/21 18:39:47;;;;;;;7.60;1.20;;;23.90;99.90;;;;;;20923418;28;20350;-76
2022/08/21 18:49:48;;;;;;;;;;;23.50;99.90;;;;;;20922124;28;20037;-77
2022/08/21 18:59:49;;;;;;;4.40;1.10;;;23.20;99.90;;;;;;20917791;28;20351;-77
2022/08/21 19:09:51;;;;;;;4.17;1.30;;;22.60;99.90;;;;;;20912957;28;20059;-77
2022/08/21 19:19:55;;;;;;;2.80;1.17;;;21.80;99.90;;;;;;20918545;28;20275;-78
2022/08/21 19:29:56;;;;;;;2.47;1.23;;;21.80;99.90;;;;;;20919638;28;20055;-78
2022/08/21 19:39:57;;;;;;;3.37;1.67;;;21.10;99.90;;;;;;20883043;28;20044;-78
2022/08/21 19:50:00;;;;;;;5.13;1.63;;;21.10;99.90;;;;;;20919892;28;20326;-78
2022/08/21 20:00:01;;;;;;;2.67;1.80;;;20.60;99.90;;;;;;20915039;28;20381;-77
2022/08/21 20:10:05;;;;;;;4.63;1.40;;;20.50;99.90;;;;;;20922116;28;20033;-77
2022/08/21 20:20:06;;;;;;;3.85;2.03;;;20.40;99.90;;;;;;21001074;28;20065;-79
2022/08/21 20:30:07;;;;;;;;;;;19.90;99.90;;;;;;20979852;28;20044;-81
2022/08/21 20:40:10;;;;;;;4.53;1.77;;;19.50;99.90;;;;;;20984510;28;19909;-81
2022/08/21 20:50:16;;;;;;;4.07;1.88;;;19.70;99.90;;;;;;20986386;28;20044;-79
2022/08/21 21:00:20;;;;;;;4.90;1.95;;;19.60;99.90;;;;;;20973943;28;20055;-79
2022/08/21 21:10:42;;;;;;;5.07;1.98;;;19.70;99.90;;;;;;20989717;28;20040;-79
2022/08/21 21:20:52;;;;;;;4.00;1.60;;;19.80;99.90;;;;;;20969849;28;20146;-79
2022/08/21 21:30:53;;;;;;;4.18;2.00;;;19.20;99.90;;;;;;20949110;28;20033;-80
2022/08/21 21:41:09;;;;;;;5.23;1.63;;;19.00;99.90;;;;;;20963698;28;20028;-81
2022/08/21 21:51:18;;;;;;;7.40;1.95;;;19.20;99.90;;;;;;20986686;28;20040;-79
2022/08/21 22:01:53;;;;;;;3.13;1.95;;;18.90;99.90;;;;;;20882370;28;20033;-79
2022/08/21 22:12:23;;;;;;;4.35;2.10;;;18.70;99.90;;;;;;20898109;28;20041;-80
2022/08/21 22:22:27;;;;;;;3.22;1.80;;;18.60;99.90;;;;;;20881185;28;20041;-81
2022/08/21 22:32:28;;;;;;;3.45;2.15;;;18.60;99.90;;;;;;20874712;28;20037;-79
2022/08/21 22:42:30;;;;;;;3.80;1.93;;;18.40;99.90;;;;;;20916354;28;20450;-78
2022/08/21 22:52:32;;;;;;;;;;;18.40;99.90;;;;;;20915275;28;20037;-77
2022/08/21 23:02:36;;;;;;;6.30;2.17;;;18.50;99.90;;;;;;20970815;28;19936;-80
2022/08/21 23:12:38;;;;;;;8.73;2.10;;;18.30;99.90;;;;;;20966036;28;20055;-80
2022/08/21 23:22:51;;;;;;;5.80;2.75;;;18.20;99.90;;;;;;20967339;28;20094;-79
2022/08/21 23:32:55;;;;;;;6.78;2.95;;;18.00;99.90;;;;;;21008510;28;20025;-80
2022/08/21 23:43:17;;;;;;;3.92;1.77;;;17.80;99.90;;;;;;21020545;28;20029;-82
2022/08/21 23:53:32;;;;;;;5.35;2.10;;;17.80;99.90;;;;;;20985228;28;20045;-80
